sensor_id;sensor_type;location;lat;lon;timestamp;P1;durP1;ratioP1;P2;durP2;ratioP2
966;SDS011;56108;48.730;9.304;2022-07-22T00:01:34;14.63;;;13.20;;
966;SDS011;56108;48.730;9.304;2022-07-22T00:03:43;13.98;;;12.85;;
966;SDS011;56108;48.730;9.304;2022-07-22T00:05:51;13.85;;;12.55;;
966;SDS011;56108;48.730;9.304;2022-07-22T00:07:59;13.63;;;12.38;;
966;SDS011;56108;48.730;9.304;2022-07-22T00:10:08;14.30;;;13.10;;
966;SDS011;56108;48.730;9.304;2022-07-22T00:12:20;13.63;;;12.40;;
966;SDS011;56108;48.730;9.304;2022-07-22T00:14:28;13.52;;;12.13;;
966;SDS011;56108;48.730;9.304;2022-07-22T00:16:36;13.90;;;12.48;;
966;SDS011;56108;48.730;9.304;2022-07-22T00:18:44;14.90;;;13.70;;
966;SDS011;56108;48.730;9.304;2022-07-22T00:20:53;14.02;;;12.82;;
966;SDS011;56108;48.730;9.304;2022-07-22T00:23:01;14.63;;;13.15;;
966;SDS011;56108;48.730;9.304;2022-07-22T00:25:09;13.30;;;12.20;;
966;SDS011;56108;48.730;9.304;2022-07-22T00:27:20;12.27;;;11.18;;
966;SDS011;56108;48.730;9.304;2022-07-22T00:29:29;14.20;;;12.85;;
966;SDS011;56108;48.730;9.304;2022-07-22T00:31:37;14.27;;;13.18;;
966;SDS011;56108;48.730;9.304;2022-07-22T00:33:45;13.98;;;12.88;;
966;SDS011;56108;48.730;9.304;2022-07-22T00:35:53;14.43;;;13.23;;
966;SDS011;56108;48.730;9.304;2022-07-22T00:38:02;13.57;;;12.57;;
966;SDS011;56108;48.730;9.304;2022-07-22T00:40:10;14.15;;;12.95;;
966;SDS011;56108;48.730;9.304;2022-07-22T00:42:22;14.73;;;13.50;;
966;SDS011;56108;48.730;9.304;2022-07-22T00:44:32;14.50;;;13.25;;
966;SDS011;56108;48.730;9.304;2022-07-22T00:46:43;14.35;;;12.95;;
966;SDS011;56108;48.730;9.304;2022-07-22T00:48:52;15.63;;;14.07;;
966;SDS011;56108;48.730;9.304;2022-07-22T00:51:01;14.93;;;13.65;;
966;SDS011;56108;48.730;9.304;2022-07-22T00:53:09;14.98;;;13.57;;
966;SDS011;56108;48.730;9.304;2022-07-22T00:55:18;14.00;;;12.70;;
966;SDS011;56108;48.730;9.304;2022-07-22T00:57:29;14.18;;;12.73;;
966;SDS011;56108;48.730;9.304;2022-07-22T00:59:37;14.63;;;13.32;;
966;SDS011;56108;48.730;9.304;2022-07-22T01:01:45;14.13;;;12.93;;
966;SDS011;56108;48.730;9.304;2022-07-22T01:03:54;13.85;;;12.75;;
966;SDS011;56108;48.730;9.304;2022-07-22T01:06:05;14.57;;;13.18;;
966;SDS011;56108;48.730;9.304;2022-07-22T01:08:14;15.32;;;14.00;;
966;SDS011;56108;48.730;9.304;2022-07-22T01:10:23;14.48;;;13.27;;
966;SDS011;56108;48.730;9.304;2022-07-22T01:12:35;15.15;;;14.05;;
966;SDS011;56108;48.730;9.304;2022-07-22T01:14:43;15.25;;;13.15;;
966;SDS011;56108;48.730;9.304;2022-07-22T01:16:51;14.68;;;13.27;;
966;SDS011;56108;48.730;9.304;2022-07-22T01:18:59;14.57;;;13.07;;
966;SDS011;56108;48.730;9.304;2022-07-22T01:21:10;15.82;;;14.43;;
966;SDS011;56108;48.730;9.304;2022-07-22T01:23:19;14.90;;;13.45;;
966;SDS011;56108;48.730;9.304;2022-07-22T01:25:27;15.02;;;13.73;;
966;SDS011;56108;48.730;9.304;2022-07-22T01:27:35;15.68;;;14.35;;
966;SDS011;56108;48.730;9.304;2022-07-22T01:29:44;14.52;;;13.32;;
966;SDS011;56108;48.730;9.304;2022-07-22T01:31:52;14.80;;;13.60;;
966;SDS011;56108;48.730;9.304;2022-07-22T01:34:01;14.70;;;13.45;;
966;SDS011;56108;48.730;9.304;2022-07-22T01:36:16;16.20;;;14.80;;
966;SDS011;56108;48.730;9.304;2022-07-22T01:38:24;15.68;;;14.27;;
966;SDS011;56108;48.730;9.304;2022-07-22T01:40:33;16.58;;;14.80;;
966;SDS011;56108;48.730;9.304;2022-07-22T01:42:42;15.10;;;13.63;;
966;SDS011;56108;48.730;9.304;2022-07-22T01:44:50;15.05;;;13.70;;
966;SDS011;56108;48.730;9.304;2022-07-22T01:46:59;15.70;;;14.40;;
966;SDS011;56108;48.730;9.304;2022-07-22T01:49:07;15.18;;;13.93;;
966;SDS011;56108;48.730;9.304;2022-07-22T01:51:19;15.20;;;13.80;;
966;SDS011;56108;48.730;9.304;2022-07-22T01:53:27;16.20;;;14.77;;
966;SDS011;56108;48.730;9.304;2022-07-22T01:55:36;15.10;;;13.80;;
966;SDS011;56108;48.730;9.304;2022-07-22T01:57:45;15.48;;;14.18;;
966;SDS011;56108;48.730;9.304;2022-07-22T02:00:02;15.82;;;14.52;;
966;SDS011;56108;48.730;9.304;2022-07-22T02:02:19;15.30;;;14.00;;
966;SDS011;56108;48.730;9.304;2022-07-22T02:04:27;15.23;;;14.02;;
966;SDS011;56108;48.730;9.304;2022-07-22T02:06:38;15.45;;;14.15;;
966;SDS011;56108;48.730;9.304;2022-07-22T02:08:48;15.93;;;14.50;;
966;SDS011;56108;48.730;9.304;2022-07-22T02:11:06;16.08;;;14.65;;
966;SDS011;56108;48.730;9.304;2022-07-22T02:13:35;15.57;;;14.07;;
966;SDS011;56108;48.730;9.304;2022-07-22T02:15:43;15.60;;;14.20;;
966;SDS011;56108;48.730;9.304;2022-07-22T02:17:51;16.75;;;15.05;;
966;SDS011;56108;48.730;9.304;2022-07-22T02:20:00;15.85;;;14.65;;
966;SDS011;56108;48.730;9.304;2022-07-22T02:22:11;14.65;;;13.45;;
966;SDS011;56108;48.730;9.304;2022-07-22T02:24:20;15.40;;;14.10;;
966;SDS011;56108;48.730;9.304;2022-07-22T02:26:28;15.77;;;14.20;;
966;SDS011;56108;48.730;9.304;2022-07-22T02:28:36;16.48;;;14.93;;
966;SDS011;56108;48.730;9.304;2022-07-22T02:30:45;16.55;;;15.15;;
966;SDS011;56108;48.730;9.304;2022-07-22T02:32:54;15.93;;;14.55;;
966;SDS011;56108;48.730;9.304;2022-07-22T02:35:02;15.73;;;14.30;;
966;SDS011;56108;48.730;9.304;2022-07-22T02:37:13;16.25;;;14.75;;
966;SDS011;56108;48.730;9.304;2022-07-22T02:39:22;15.32;;;13.90;;
966;SDS011;56108;48.730;9.304;2022-07-22T02:41:30;16.58;;;15.27;;
966;SDS011;56108;48.730;9.304;2022-07-22T02:43:39;16.30;;;14.80;;
966;SDS011;56108;48.730;9.304;2022-07-22T02:45:50;16.80;;;15.40;;
966;SDS011;56108;48.730;9.304;2022-07-22T02:47:58;16.45;;;14.95;;
966;SDS011;56108;48.730;9.304;2022-07-22T02:50:10;17.83;;;15.90;;
966;SDS011;56108;48.730;9.304;2022-07-22T02:52:21;17.55;;;16.00;;
966;SDS011;56108;48.730;9.304;2022-07-22T02:54:29;16.95;;;15.45;;
966;SDS011;56108;48.730;9.304;2022-07-22T02:56:38;16.73;;;15.32;;
966;SDS011;56108;48.730;9.304;2022-07-22T02:58:46;16.58;;;15.07;;
966;SDS011;56108;48.730;9.304;2022-07-22T03:00:57;15.95;;;14.55;;
966;SDS011;56108;48.730;9.304;2022-07-22T03:03:16;16.52;;;14.93;;
966;SDS011;56108;48.730;9.304;2022-07-22T03:05:25;16.98;;;15.57;;
966;SDS011;56108;48.730;9.304;2022-07-22T03:07:51;16.83;;;15.52;;
966;SDS011;56108;48.730;9.304;2022-07-22T03:10:00;17.42;;;15.98;;
966;SDS011;56108;48.730;9.304;2022-07-22T03:12:09;16.58;;;15.20;;
966;SDS011;56108;48.730;9.304;2022-07-22T03:14:18;16.23;;;14.63;;
966;SDS011;56108;48.730;9.304;2022-07-22T03:16:26;16.60;;;15.07;;
966;SDS011;56108;48.730;9.304;2022-07-22T03:18:35;17.00;;;15.35;;
966;SDS011;56108;48.730;9.304;2022-07-22T03:20:43;17.52;;;15.65;;
966;SDS011;56108;48.730;9.304;2022-07-22T03:22:54;17.73;;;16.23;;
966;SDS011;56108;48.730;9.304;2022-07-22T03:25:02;17.58;;;16.00;;
966;SDS011;56108;48.730;9.304;2022-07-22T03:27:11;18.10;;;16.23;;
966;SDS011;56108;48.730;9.304;2022-07-22T03:29:19;17.25;;;15.85;;
966;SDS011;56108;48.730;9.304;2022-07-22T03:31:29;17.02;;;15.32;;
966;SDS011;56108;48.730;9.304;2022-07-22T03:33:39;16.52;;;15.23;;
966;SDS011;56108;48.730;9.304;2022-07-22T03:35:47;17.92;;;16.05;;
966;SDS011;56108;48.730;9.304;2022-07-22T03:37:59;17.70;;;16.08;;
966;SDS011;56108;48.730;9.304;2022-07-22T03:40:08;17.08;;;15.50;;
966;SDS011;56108;48.730;9.304;2022-07-22T03:42:18;16.40;;;14.90;;
966;SDS011;56108;48.730;9.304;2022-07-22T03:44:28;17.70;;;15.98;;
966;SDS011;56108;48.730;9.304;2022-07-22T03:46:36;17.27;;;15.77;;
966;SDS011;56108;48.730;9.304;2022-07-22T03:48:45;18.20;;;16.60;;
966;SDS011;56108;48.730;9.304;2022-07-22T03:50:53;16.83;;;15.38;;
966;SDS011;56108;48.730;9.304;2022-07-22T03:53:07;17.55;;;16.05;;
966;SDS011;56108;48.730;9.304;2022-07-22T03:55:18;16.77;;;15.38;;
966;SDS011;56108;48.730;9.304;2022-07-22T03:57:29;16.20;;;14.80;;
966;SDS011;56108;48.730;9.304;2022-07-22T03:59:46;18.02;;;16.40;;
966;SDS011;56108;48.730;9.304;2022-07-22T04:01:55;17.15;;;15.10;;
966;SDS011;56108;48.730;9.304;2022-07-22T04:04:03;16.67;;;15.20;;
966;SDS011;56108;48.730;9.304;2022-07-22T04:06:18;16.45;;;15.02;;
966;SDS011;56108;48.730;9.304;2022-07-22T04:08:36;15.50;;;14.20;;
966;SDS011;56108;48.730;9.304;2022-07-22T04:10:45;16.50;;;15.13;;
966;SDS011;56108;48.730;9.304;2022-07-22T04:12:53;16.85;;;15.45;;
966;SDS011;56108;48.730;9.304;2022-07-22T04:15:10;16.00;;;14.40;;
966;SDS011;56108;48.730;9.304;2022-07-22T04:17:19;15.48;;;14.18;;
966;SDS011;56108;48.730;9.304;2022-07-22T04:19:27;15.68;;;14.27;;
966;SDS011;56108;48.730;9.304;2022-07-22T04:21:36;16.02;;;14.82;;
966;SDS011;56108;48.730;9.304;2022-07-22T04:23:49;16.67;;;15.27;;
966;SDS011;56108;48.730;9.304;2022-07-22T04:26:06;15.95;;;14.38;;
966;SDS011;56108;48.730;9.304;2022-07-22T04:28:14;15.40;;;13.95;;
966;SDS011;56108;48.730;9.304;2022-07-22T04:30:22;15.32;;;13.77;;
966;SDS011;56108;48.730;9.304;2022-07-22T04:32:33;14.95;;;13.65;;
966;SDS011;56108;48.730;9.304;2022-07-22T04:34:41;15.70;;;14.20;;
966;SDS011;56108;48.730;9.304;2022-07-22T04:36:50;13.57;;;12.38;;
966;SDS011;56108;48.730;9.304;2022-07-22T04:39:00;13.50;;;12.32;;
966;SDS011;56108;48.730;9.304;2022-07-22T04:41:10;14.13;;;12.93;;
966;SDS011;56108;48.730;9.304;2022-07-22T04:43:18;12.48;;;11.50;;
966;SDS011;56108;48.730;9.304;2022-07-22T04:45:26;13.55;;;12.45;;
966;SDS011;56108;48.730;9.304;2022-07-22T04:47:34;12.60;;;11.60;;
966;SDS011;56108;48.730;9.304;2022-07-22T04:49:43;11.27;;;10.37;;
966;SDS011;56108;48.730;9.304;2022-07-22T04:51:52;11.77;;;10.77;;
966;SDS011;56108;48.730;9.304;2022-07-22T04:54:13;11.80;;;11.00;;
966;SDS011;56108;48.730;9.304;2022-07-22T04:56:25;12.47;;;11.37;;
966;SDS011;56108;48.730;9.304;2022-07-22T04:58:34;12.40;;;11.37;;
966;SDS011;56108;48.730;9.304;2022-07-22T05:00:42;11.20;;;10.40;;
966;SDS011;56108;48.730;9.304;2022-07-22T05:02:51;11.10;;;10.30;;
966;SDS011;56108;48.730;9.304;2022-07-22T05:04:59;12.30;;;11.30;;
966;SDS011;56108;48.730;9.304;2022-07-22T05:07:07;11.83;;;10.93;;
966;SDS011;56108;48.730;9.304;2022-07-22T05:09:18;13.17;;;11.00;;
966;SDS011;56108;48.730;9.304;2022-07-22T05:11:26;11.77;;;10.87;;
966;SDS011;56108;48.730;9.304;2022-07-22T05:13:34;12.13;;;10.93;;
966;SDS011;56108;48.730;9.304;2022-07-22T05:15:43;12.97;;;11.80;;
966;SDS011;56108;48.730;9.304;2022-07-22T05:17:52;13.57;;;12.67;;
966;SDS011;56108;48.730;9.304;2022-07-22T05:20:04;13.00;;;12.10;;
966;SDS011;56108;48.730;9.304;2022-07-22T05:22:14;11.83;;;11.13;;
966;SDS011;56108;48.730;9.304;2022-07-22T05:24:25;11.10;;;10.40;;
966;SDS011;56108;48.730;9.304;2022-07-22T05:26:33;12.77;;;11.83;;
966;SDS011;56108;48.730;9.304;2022-07-22T05:28:42;12.57;;;11.77;;
966;SDS011;56108;48.730;9.304;2022-07-22T05:30:50;13.20;;;12.23;;
966;SDS011;56108;48.730;9.304;2022-07-22T05:33:02;11.87;;;11.07;;
966;SDS011;56108;48.730;9.304;2022-07-22T05:35:32;12.20;;;11.30;;
966;SDS011;56108;48.730;9.304;2022-07-22T05:37:42;11.93;;;11.03;;
966;SDS011;56108;48.730;9.304;2022-07-22T05:39:55;11.10;;;10.37;;
966;SDS011;56108;48.730;9.304;2022-07-22T05:42:04;11.63;;;10.90;;
966;SDS011;56108;48.730;9.304;2022-07-22T05:44:13;12.90;;;11.90;;
966;SDS011;56108;48.730;9.304;2022-07-22T05:46:21;12.50;;;11.70;;
966;SDS011;56108;48.730;9.304;2022-07-22T05:48:31;12.20;;;11.30;;
966;SDS011;56108;48.730;9.304;2022-07-22T05:50:39;13.40;;;12.50;;
966;SDS011;56108;48.730;9.304;2022-07-22T05:52:47;13.93;;;12.60;;
966;SDS011;56108;48.730;9.304;2022-07-22T05:54:58;13.47;;;12.47;;
966;SDS011;56108;48.730;9.304;2022-07-22T05:57:08;12.83;;;11.93;;
966;SDS011;56108;48.730;9.304;2022-07-22T05:59:16;12.53;;;11.73;;
966;SDS011;56108;48.730;9.304;2022-07-22T06:01:25;12.97;;;12.07;;
966;SDS011;56108;48.730;9.304;2022-07-22T06:03:36;13.47;;;12.37;;
966;SDS011;56108;48.730;9.304;2022-07-22T06:05:44;13.97;;;12.80;;
966;SDS011;56108;48.730;9.304;2022-07-22T06:07:52;13.30;;;12.27;;
966;SDS011;56108;48.730;9.304;2022-07-22T06:10:17;13.80;;;12.80;;
966;SDS011;56108;48.730;9.304;2022-07-22T06:12:25;13.37;;;12.37;;
966;SDS011;56108;48.730;9.304;2022-07-22T06:14:33;12.30;;;11.50;;
966;SDS011;56108;48.730;9.304;2022-07-22T06:16:42;12.60;;;11.70;;
966;SDS011;56108;48.730;9.304;2022-07-22T06:18:50;13.90;;;12.90;;
966;SDS011;56108;48.730;9.304;2022-07-22T06:20:59;13.37;;;12.30;;
966;SDS011;56108;48.730;9.304;2022-07-22T06:23:07;13.30;;;12.40;;
966;SDS011;56108;48.730;9.304;2022-07-22T06:25:18;14.30;;;13.30;;
966;SDS011;56108;48.730;9.304;2022-07-22T06:27:49;14.30;;;13.00;;
966;SDS011;56108;48.730;9.304;2022-07-22T06:29:58;14.17;;;13.23;;
966;SDS011;56108;48.730;9.304;2022-07-22T06:32:08;13.90;;;12.60;;
966;SDS011;56108;48.730;9.304;2022-07-22T06:34:17;12.10;;;11.40;;
966;SDS011;56108;48.730;9.304;2022-07-22T06:36:42;14.20;;;13.20;;
966;SDS011;56108;48.730;9.304;2022-07-22T06:38:50;13.87;;;12.90;;
966;SDS011;56108;48.730;9.304;2022-07-22T06:41:02;13.93;;;12.93;;
966;SDS011;56108;48.730;9.304;2022-07-22T06:43:28;15.60;;;14.30;;
966;SDS011;56108;48.730;9.304;2022-07-22T06:45:53;13.70;;;12.87;;
966;SDS011;56108;48.730;9.304;2022-07-22T06:48:09;12.97;;;12.17;;
966;SDS011;56108;48.730;9.304;2022-07-22T06:50:18;15.20;;;14.10;;
966;SDS011;56108;48.730;9.304;2022-07-22T06:52:29;13.83;;;12.93;;
966;SDS011;56108;48.730;9.304;2022-07-22T06:54:38;13.73;;;12.83;;
966;SDS011;56108;48.730;9.304;2022-07-22T06:56:54;14.37;;;13.37;;
966;SDS011;56108;48.730;9.304;2022-07-22T06:59:07;14.60;;;13.70;;
966;SDS011;56108;48.730;9.304;2022-07-22T07:01:16;15.07;;;13.63;;
966;SDS011;56108;48.730;9.304;2022-07-22T07:03:31;13.97;;;12.97;;
966;SDS011;56108;48.730;9.304;2022-07-22T07:05:42;14.70;;;13.70;;
966;SDS011;56108;48.730;9.304;2022-07-22T07:07:54;13.87;;;12.97;;
966;SDS011;56108;48.730;9.304;2022-07-22T07:10:03;13.57;;;12.60;;
966;SDS011;56108;48.730;9.304;2022-07-22T07:12:30;15.50;;;14.27;;
966;SDS011;56108;48.730;9.304;2022-07-22T07:14:44;14.03;;;13.13;;
966;SDS011;56108;48.730;9.304;2022-07-22T07:17:23;13.70;;;12.63;;
966;SDS011;56108;48.730;9.304;2022-07-22T07:19:32;13.30;;;12.40;;
966;SDS011;56108;48.730;9.304;2022-07-22T07:21:40;13.30;;;12.50;;
966;SDS011;56108;48.730;9.304;2022-07-22T07:23:53;13.03;;;12.13;;
966;SDS011;56108;48.730;9.304;2022-07-22T07:26:03;13.70;;;12.80;;
966;SDS011;56108;48.730;9.304;2022-07-22T07:28:14;12.67;;;11.87;;
966;SDS011;56108;48.730;9.304;2022-07-22T07:30:38;12.50;;;11.60;;
966;SDS011;56108;48.730;9.304;2022-07-22T07:32:46;11.83;;;11.13;;
966;SDS011;56108;48.730;9.304;2022-07-22T07:34:54;12.20;;;11.50;;
966;SDS011;56108;48.730;9.304;2022-07-22T07:37:02;12.37;;;11.57;;
966;SDS011;56108;48.730;9.304;2022-07-22T07:39:11;11.73;;;10.87;;
966;SDS011;56108;48.730;9.304;2022-07-22T07:41:20;13.10;;;12.10;;
966;SDS011;56108;48.730;9.304;2022-07-22T07:43:31;12.50;;;11.70;;
966;SDS011;56108;48.730;9.304;2022-07-22T07:45:40;12.63;;;11.73;;
966;SDS011;56108;48.730;9.304;2022-07-22T07:47:48;12.07;;;11.27;;
966;SDS011;56108;48.730;9.304;2022-07-22T07:49:57;13.50;;;12.60;;
966;SDS011;56108;48.730;9.304;2022-07-22T07:52:07;11.80;;;10.90;;
966;SDS011;56108;48.730;9.304;2022-07-22T07:54:18;11.77;;;10.97;;
966;SDS011;56108;48.730;9.304;2022-07-22T07:56:27;13.57;;;12.53;;
966;SDS011;56108;48.730;9.304;2022-07-22T07:58:38;13.33;;;12.33;;
966;SDS011;56108;48.730;9.304;2022-07-22T08:01:07;14.20;;;13.20;;
966;SDS011;56108;48.730;9.304;2022-07-22T08:03:15;13.97;;;12.63;;
966;SDS011;56108;48.730;9.304;2022-07-22T08:05:24;13.40;;;12.40;;
966;SDS011;56108;48.730;9.304;2022-07-22T08:07:33;14.37;;;13.17;;
966;SDS011;56108;48.730;9.304;2022-07-22T08:09:42;12.33;;;11.43;;
966;SDS011;56108;48.730;9.304;2022-07-22T08:11:59;13.13;;;12.10;;
966;SDS011;56108;48.730;9.304;2022-07-22T08:14:40;12.33;;;11.43;;
966;SDS011;56108;48.730;9.304;2022-07-22T08:17:21;12.67;;;11.57;;
966;SDS011;56108;48.730;9.304;2022-07-22T08:19:29;11.60;;;10.80;;
966;SDS011;56108;48.730;9.304;2022-07-22T08:21:38;12.23;;;11.43;;
966;SDS011;56108;48.730;9.304;2022-07-22T08:24:05;11.17;;;10.27;;
966;SDS011;56108;48.730;9.304;2022-07-22T08:26:13;12.20;;;11.20;;
966;SDS011;56108;48.730;9.304;2022-07-22T08:28:21;13.00;;;12.00;;
966;SDS011;56108;48.730;9.304;2022-07-22T08:30:32;11.90;;;11.10;;
966;SDS011;56108;48.730;9.304;2022-07-22T08:32:40;11.77;;;10.97;;
966;SDS011;56108;48.730;9.304;2022-07-22T08:34:48;11.93;;;11.10;;
966;SDS011;56108;48.730;9.304;2022-07-22T08:36:56;11.50;;;10.70;;
966;SDS011;56108;48.730;9.304;2022-07-22T08:39:05;13.47;;;12.57;;
966;SDS011;56108;48.730;9.304;2022-07-22T08:41:14;13.03;;;12.00;;
966;SDS011;56108;48.730;9.304;2022-07-22T08:43:23;13.10;;;12.10;;
966;SDS011;56108;48.730;9.304;2022-07-22T08:45:34;13.77;;;12.80;;
966;SDS011;56108;48.730;9.304;2022-07-22T08:47:44;13.37;;;12.27;;
966;SDS011;56108;48.730;9.304;2022-07-22T08:50:00;14.20;;;13.20;;
966;SDS011;56108;48.730;9.304;2022-07-22T08:52:31;13.37;;;12.33;;
966;SDS011;56108;48.730;9.304;2022-07-22T08:54:40;13.87;;;12.67;;
966;SDS011;56108;48.730;9.304;2022-07-22T08:56:50;14.53;;;13.23;;
966;SDS011;56108;48.730;9.304;2022-07-22T08:59:01;13.20;;;12.20;;
966;SDS011;56108;48.730;9.304;2022-07-22T09:01:12;14.27;;;13.17;;
966;SDS011;56108;48.730;9.304;2022-07-22T09:03:27;14.17;;;13.07;;
966;SDS011;56108;48.730;9.304;2022-07-22T09:05:37;14.63;;;13.43;;
966;SDS011;56108;48.730;9.304;2022-07-22T09:07:57;13.97;;;12.97;;
966;SDS011;56108;48.730;9.304;2022-07-22T09:10:11;13.90;;;12.80;;
966;SDS011;56108;48.730;9.304;2022-07-22T09:12:50;13.20;;;12.13;;
966;SDS011;56108;48.730;9.304;2022-07-22T09:15:31;11.80;;;11.00;;
966;SDS011;56108;48.730;9.304;2022-07-22T09:18:16;11.57;;;10.77;;
966;SDS011;56108;48.730;9.304;2022-07-22T09:20:41;13.30;;;12.30;;
966;SDS011;56108;48.730;9.304;2022-07-22T09:23:10;12.77;;;11.97;;
966;SDS011;56108;48.730;9.304;2022-07-22T09:25:21;12.40;;;11.60;;
966;SDS011;56108;48.730;9.304;2022-07-22T09:27:52;12.07;;;11.37;;
966;SDS011;56108;48.730;9.304;2022-07-22T09:30:07;11.10;;;10.40;;
966;SDS011;56108;48.730;9.304;2022-07-22T09:32:47;11.90;;;11.20;;
966;SDS011;56108;48.730;9.304;2022-07-22T09:35:20;12.33;;;11.30;;
966;SDS011;56108;48.730;9.304;2022-07-22T09:37:31;11.90;;;11.10;;
966;SDS011;56108;48.730;9.304;2022-07-22T09:39:40;11.87;;;11.00;;
966;SDS011;56108;48.730;9.304;2022-07-22T09:41:55;12.27;;;11.37;;
966;SDS011;56108;48.730;9.304;2022-07-22T09:46:35;12.10;;;11.20;;
966;SDS011;56108;48.730;9.304;2022-07-22T09:49:04;11.17;;;10.37;;
966;SDS011;56108;48.730;9.304;2022-07-22T09:51:37;11.80;;;11.10;;
966;SDS011;56108;48.730;9.304;2022-07-22T09:53:55;10.53;;;9.83;;
966;SDS011;56108;48.730;9.304;2022-07-22T09:56:08;10.60;;;9.70;;
966;SDS011;56108;48.730;9.304;2022-07-22T09:58:16;10.83;;;9.93;;
966;SDS011;56108;48.730;9.304;2022-07-22T10:00:25;10.57;;;9.87;;
966;SDS011;56108;48.730;9.304;2022-07-22T10:02:37;11.00;;;10.30;;
966;SDS011;56108;48.730;9.304;2022-07-22T10:04:50;10.80;;;10.00;;
966;SDS011;56108;48.730;9.304;2022-07-22T10:07:02;11.50;;;10.60;;
966;SDS011;56108;48.730;9.304;2022-07-22T10:09:17;11.07;;;10.37;;
966;SDS011;56108;48.730;9.304;2022-07-22T10:11:27;11.30;;;10.40;;
966;SDS011;56108;48.730;9.304;2022-07-22T10:13:36;11.60;;;10.80;;
966;SDS011;56108;48.730;9.304;2022-07-22T10:15:47;12.93;;;11.50;;
966;SDS011;56108;48.730;9.304;2022-07-22T10:18:00;11.50;;;10.50;;
966;SDS011;56108;48.730;9.304;2022-07-22T10:20:15;11.90;;;11.10;;
966;SDS011;56108;48.730;9.304;2022-07-22T10:25:04;12.53;;;11.73;;
966;SDS011;56108;48.730;9.304;2022-07-22T10:27:12;11.37;;;10.67;;
966;SDS011;56108;48.730;9.304;2022-07-22T10:29:24;10.87;;;10.17;;
966;SDS011;56108;48.730;9.304;2022-07-22T10:31:34;10.47;;;9.77;;
966;SDS011;56108;48.730;9.304;2022-07-22T10:33:43;10.37;;;9.67;;
966;SDS011;56108;48.730;9.304;2022-07-22T10:35:53;10.90;;;10.10;;
966;SDS011;56108;48.730;9.304;2022-07-22T10:38:15;11.17;;;10.40;;
966;SDS011;56108;48.730;9.304;2022-07-22T10:40:25;11.30;;;10.50;;
966;SDS011;56108;48.730;9.304;2022-07-22T10:45:12;11.67;;;10.80;;
966;SDS011;56108;48.730;9.304;2022-07-22T10:47:34;10.63;;;9.83;;
966;SDS011;56108;48.730;9.304;2022-07-22T10:52:40;11.30;;;10.60;;
966;SDS011;56108;48.730;9.304;2022-07-22T10:57:30;11.30;;;10.50;;
966;SDS011;56108;48.730;9.304;2022-07-22T10:59:48;10.87;;;10.17;;
966;SDS011;56108;48.730;9.304;2022-07-22T11:02:01;11.67;;;10.47;;
966;SDS011;56108;48.730;9.304;2022-07-22T11:04:10;10.73;;;10.00;;
966;SDS011;56108;48.730;9.304;2022-07-22T11:06:25;10.27;;;9.43;;
966;SDS011;56108;48.730;9.304;2022-07-22T11:08:34;9.80;;;9.20;;
966;SDS011;56108;48.730;9.304;2022-07-22T11:10:49;11.50;;;10.70;;
966;SDS011;56108;48.730;9.304;2022-07-22T11:12:58;10.83;;;10.10;;
966;SDS011;56108;48.730;9.304;2022-07-22T11:15:06;10.60;;;10.00;;
966;SDS011;56108;48.730;9.304;2022-07-22T11:17:15;11.10;;;10.10;;
966;SDS011;56108;48.730;9.304;2022-07-22T11:19:28;11.60;;;10.80;;
966;SDS011;56108;48.730;9.304;2022-07-22T11:21:37;10.67;;;9.87;;
966;SDS011;56108;48.730;9.304;2022-07-22T11:23:48;11.50;;;10.80;;
966;SDS011;56108;48.730;9.304;2022-07-22T11:26:02;11.80;;;10.97;;
966;SDS011;56108;48.730;9.304;2022-07-22T11:28:10;12.03;;;11.13;;
966;SDS011;56108;48.730;9.304;2022-07-22T11:30:18;12.20;;;11.30;;
966;SDS011;56108;48.730;9.304;2022-07-22T11:32:27;12.13;;;11.33;;
966;SDS011;56108;48.730;9.304;2022-07-22T11:34:39;12.00;;;11.10;;
966;SDS011;56108;48.730;9.304;2022-07-22T11:36:51;11.37;;;10.67;;
966;SDS011;56108;48.730;9.304;2022-07-22T11:38:59;11.40;;;10.60;;
966;SDS011;56108;48.730;9.304;2022-07-22T11:41:11;11.70;;;10.90;;
966;SDS011;56108;48.730;9.304;2022-07-22T11:43:19;11.87;;;10.97;;
966;SDS011;56108;48.730;9.304;2022-07-22T11:45:27;12.23;;;11.33;;
966;SDS011;56108;48.730;9.304;2022-07-22T11:47:35;11.37;;;10.57;;
966;SDS011;56108;48.730;9.304;2022-07-22T11:49:45;10.90;;;10.20;;
966;SDS011;56108;48.730;9.304;2022-07-22T11:51:53;11.80;;;10.90;;
966;SDS011;56108;48.730;9.304;2022-07-22T11:54:03;11.87;;;10.97;;
966;SDS011;56108;48.730;9.304;2022-07-22T11:56:14;12.17;;;11.17;;
966;SDS011;56108;48.730;9.304;2022-07-22T11:58:33;13.10;;;12.10;;
966;SDS011;56108;48.730;9.304;2022-07-22T12:00:44;10.90;;;10.20;;
966;SDS011;56108;48.730;9.304;2022-07-22T12:02:54;11.97;;;10.73;;
966;SDS011;56108;48.730;9.304;2022-07-22T12:05:02;11.50;;;10.70;;
966;SDS011;56108;48.730;9.304;2022-07-22T12:07:31;11.30;;;10.30;;
966;SDS011;56108;48.730;9.304;2022-07-22T12:09:40;11.50;;;10.57;;
966;SDS011;56108;48.730;9.304;2022-07-22T12:11:53;11.80;;;10.90;;
966;SDS011;56108;48.730;9.304;2022-07-22T12:14:06;12.10;;;11.20;;
966;SDS011;56108;48.730;9.304;2022-07-22T12:16:23;11.63;;;10.83;;
966;SDS011;56108;48.730;9.304;2022-07-22T12:18:38;12.27;;;11.17;;
966;SDS011;56108;48.730;9.304;2022-07-22T12:20:47;12.60;;;11.60;;
966;SDS011;56108;48.730;9.304;2022-07-22T12:22:58;12.10;;;11.10;;
966;SDS011;56108;48.730;9.304;2022-07-22T12:25:07;11.10;;;10.30;;
966;SDS011;56108;48.730;9.304;2022-07-22T12:27:18;11.87;;;10.97;;
966;SDS011;56108;48.730;9.304;2022-07-22T12:29:27;11.07;;;10.40;;
966;SDS011;56108;48.730;9.304;2022-07-22T12:31:41;10.57;;;9.87;;
966;SDS011;56108;48.730;9.304;2022-07-22T12:33:49;10.73;;;9.83;;
966;SDS011;56108;48.730;9.304;2022-07-22T12:35:59;12.03;;;11.13;;
966;SDS011;56108;48.730;9.304;2022-07-22T12:38:10;10.90;;;10.20;;
966;SDS011;56108;48.730;9.304;2022-07-22T12:40:20;11.30;;;10.47;;
966;SDS011;56108;48.730;9.304;2022-07-22T12:42:32;11.40;;;10.60;;
966;SDS011;56108;48.730;9.304;2022-07-22T12:44:49;10.90;;;10.10;;
966;SDS011;56108;48.730;9.304;2022-07-22T12:46:58;11.90;;;11.10;;
966;SDS011;56108;48.730;9.304;2022-07-22T12:49:06;11.33;;;10.53;;
966;SDS011;56108;48.730;9.304;2022-07-22T12:51:16;11.00;;;10.20;;
966;SDS011;56108;48.730;9.304;2022-07-22T12:53:25;11.80;;;11.00;;
966;SDS011;56108;48.730;9.304;2022-07-22T12:55:34;11.40;;;10.43;;
966;SDS011;56108;48.730;9.304;2022-07-22T12:57:46;11.77;;;10.87;;
966;SDS011;56108;48.730;9.304;2022-07-22T12:59:54;10.70;;;10.00;;
966;SDS011;56108;48.730;9.304;2022-07-22T13:02:03;10.63;;;9.93;;
966;SDS011;56108;48.730;9.304;2022-07-22T13:04:12;10.87;;;10.17;;
966;SDS011;56108;48.730;9.304;2022-07-22T13:06:20;10.70;;;9.90;;
966;SDS011;56108;48.730;9.304;2022-07-22T13:08:28;10.40;;;9.70;;
966;SDS011;56108;48.730;9.304;2022-07-22T13:10:49;11.37;;;10.30;;
966;SDS011;56108;48.730;9.304;2022-07-22T13:13:00;10.33;;;9.63;;
966;SDS011;56108;48.730;9.304;2022-07-22T13:15:09;10.30;;;9.60;;
966;SDS011;56108;48.730;9.304;2022-07-22T13:17:17;10.23;;;9.53;;
966;SDS011;56108;48.730;9.304;2022-07-22T13:19:25;9.93;;;8.97;;
966;SDS011;56108;48.730;9.304;2022-07-22T13:21:33;10.00;;;9.30;;
966;SDS011;56108;48.730;9.304;2022-07-22T13:23:41;10.27;;;8.70;;
966;SDS011;56108;48.730;9.304;2022-07-22T13:25:49;10.53;;;9.73;;
966;SDS011;56108;48.730;9.304;2022-07-22T13:28:02;9.93;;;9.33;;